Terminal Aerodrome Forecast
Issued by NWS

Home | Current Version | Previous Version | Text Only | Print | Product List | Glossary On
Versions: 1 2 3 4 5 6 7 8 9 10 11 12 13 14 15 16
000
FTUS44 KEPZ 291735
TAFTCS
TAF
KTCS 291735Z 2918/3018 04006KT P6SM FEW080 SCT200
     FM292100 15007KT P6SM VCTS SCT070CB BKN150
     FM300300 31006KT P6SM SCT100 BKN250=

USA.gov is the U.S. government's official web portal to all federal, state and local government web resources and services.